sensor_id;sensor_type;location;lat;lon;timestamp;pressure;altitude;pressure_sealevel;temperature;humidity
62708;BME280;48769;51.624;5.886;2023-01-29T00:00:47;102880.50;;;-0.11;100.00
62708;BME280;48769;51.624;5.886;2023-01-29T00:03:12;102889.47;;;0.01;100.00
62708;BME280;48769;51.624;5.886;2023-01-29T00:05:37;102881.69;;;0.02;100.00
62708;BME280;48769;51.624;5.886;2023-01-29T00:08:03;102876.41;;;-0.03;100.00
62708;BME280;48769;51.624;5.886;2023-01-29T00:10:28;102883.75;;;0.15;100.00
62708;BME280;48769;51.624;5.886;2023-01-29T00:12:54;102873.50;;;0.20;100.00
62708;BME280;48769;51.624;5.886;2023-01-29T00:15:19;102876.00;;;0.17;100.00
62708;BME280;48769;51.624;5.886;2023-01-29T00:17:44;102871.69;;;0.17;100.00
62708;BME280;48769;51.624;5.886;2023-01-29T00:20:10;102870.06;;;0.22;100.00
62708;BME280;48769;51.624;5.886;2023-01-29T00:22:36;102866.72;;;0.27;100.00
62708;BME280;48769;51.624;5.886;2023-01-29T00:25:01;102861.44;;;0.23;100.00
62708;BME280;48769;51.624;5.886;2023-01-29T00:27:26;102851.13;;;0.28;100.00
62708;BME280;48769;51.624;5.886;2023-01-29T00:29:51;102848.47;;;0.25;100.00
62708;BME280;48769;51.624;5.886;2023-01-29T00:32:36;102848.25;;;0.16;100.00
62708;BME280;48769;51.624;5.886;2023-01-29T00:35:01;102847.28;;;0.12;100.00
62708;BME280;48769;51.624;5.886;2023-01-29T00:37:26;102845.53;;;0.11;100.00
62708;BME280;48769;51.624;5.886;2023-01-29T00:39:52;102841.94;;;0.06;100.00
62708;BME280;48769;51.624;5.886;2023-01-29T00:42:17;102846.09;;;-0.02;100.00
62708;BME280;48769;51.624;5.886;2023-01-29T00:45:01;102839.88;;;-0.09;100.00
62708;BME280;48769;51.624;5.886;2023-01-29T00:47:26;102829.44;;;-0.10;100.00
62708;BME280;48769;51.624;5.886;2023-01-29T00:49:55;102833.53;;;-0.20;100.00
62708;BME280;48769;51.624;5.886;2023-01-29T00:52:20;102824.75;;;-0.25;100.00
62708;BME280;48769;51.624;5.886;2023-01-29T00:54:49;102817.69;;;-0.31;100.00
62708;BME280;48769;51.624;5.886;2023-01-29T00:57:14;102820.19;;;-0.34;100.00
62708;BME280;48769;51.624;5.886;2023-01-29T00:59:40;102811.44;;;-0.37;100.00
62708;BME280;48769;51.624;5.886;2023-01-29T01:02:05;102808.84;;;-0.37;100.00
62708;BME280;48769;51.624;5.886;2023-01-29T01:04:49;102805.22;;;-0.44;100.00
62708;BME280;48769;51.624;5.886;2023-01-29T01:07:14;102809.41;;;-0.49;100.00
62708;BME280;48769;51.624;5.886;2023-01-29T01:09:40;102806.88;;;-0.48;100.00
62708;BME280;48769;51.624;5.886;2023-01-29T01:12:24;102815.59;;;-0.45;100.00
62708;BME280;48769;51.624;5.886;2023-01-29T01:14:49;102810.34;;;-0.47;100.00
62708;BME280;48769;51.624;5.886;2023-01-29T01:17:14;102811.03;;;-0.54;100.00
62708;BME280;48769;51.624;5.886;2023-01-29T01:19:40;102809.94;;;-0.62;100.00
62708;BME280;48769;51.624;5.886;2023-01-29T01:22:05;102809.13;;;-0.61;100.00
62708;BME280;48769;51.624;5.886;2023-01-29T01:24:31;102807.25;;;-0.65;100.00
62708;BME280;48769;51.624;5.886;2023-01-29T01:26:57;102817.56;;;-0.68;100.00
62708;BME280;48769;51.624;5.886;2023-01-29T01:29:22;102809.75;;;-0.70;100.00
62708;BME280;48769;51.624;5.886;2023-01-29T01:31:48;102813.97;;;-0.74;100.00
62708;BME280;48769;51.624;5.886;2023-01-29T01:34:14;102811.41;;;-0.72;100.00
62708;BME280;48769;51.624;5.886;2023-01-29T01:36:39;102819.16;;;-0.74;100.00
62708;BME280;48769;51.624;5.886;2023-01-29T01:39:04;102816.50;;;-0.77;100.00
62708;BME280;48769;51.624;5.886;2023-01-29T01:41:30;102823.41;;;-0.77;100.00
62708;BME280;48769;51.624;5.886;2023-01-29T01:44:00;102818.28;;;-0.74;100.00
62708;BME280;48769;51.624;5.886;2023-01-29T01:46:30;102816.50;;;-0.75;100.00
62708;BME280;48769;51.624;5.886;2023-01-29T01:49:17;102824.28;;;-0.77;100.00
62708;BME280;48769;51.624;5.886;2023-01-29T01:51:46;102824.22;;;-0.78;100.00
62708;BME280;48769;51.624;5.886;2023-01-29T01:54:17;102822.34;;;-0.84;100.00
62708;BME280;48769;51.624;5.886;2023-01-29T01:56:47;102824.03;;;-0.86;100.00
62708;BME280;48769;51.624;5.886;2023-01-29T01:59:17;102812.78;;;-0.85;100.00
62708;BME280;48769;51.624;5.886;2023-01-29T02:01:46;102824.78;;;-0.90;100.00
62708;BME280;48769;51.624;5.886;2023-01-29T02:04:17;102819.59;;;-0.90;100.00
62708;BME280;48769;51.624;5.886;2023-01-29T02:07:06;102816.16;;;-0.89;100.00
62708;BME280;48769;51.624;5.886;2023-01-29T02:09:54;102811.84;;;-0.88;100.00
62708;BME280;48769;51.624;5.886;2023-01-29T02:12:22;102822.28;;;-0.87;100.00
62708;BME280;48769;51.624;5.886;2023-01-29T02:14:47;102821.25;;;-0.92;100.00
62708;BME280;48769;51.624;5.886;2023-01-29T02:17:14;102820.28;;;-0.96;100.00
62708;BME280;48769;51.624;5.886;2023-01-29T02:19:49;102828.13;;;-0.94;100.00
62708;BME280;48769;51.624;5.886;2023-01-29T02:28:18;102829.91;;;-0.91;100.00
62708;BME280;48769;51.624;5.886;2023-01-29T02:33:46;102825.66;;;-0.89;100.00
62708;BME280;48769;51.624;5.886;2023-01-29T02:41:48;102832.91;;;-0.78;100.00
62708;BME280;48769;51.624;5.886;2023-01-29T02:44:26;102827.72;;;-0.78;100.00
62708;BME280;48769;51.624;5.886;2023-01-29T02:52:33;102836.50;;;-0.73;100.00
62708;BME280;48769;51.624;5.886;2023-01-29T02:55:14;102836.56;;;-0.69;100.00
62708;BME280;48769;51.624;5.886;2023-01-29T02:57:43;102833.28;;;-0.62;100.00
62708;BME280;48769;51.624;5.886;2023-01-29T03:00:21;102819.72;;;-0.52;100.00
62708;BME280;48769;51.624;5.886;2023-01-29T03:03:09;102828.59;;;-0.44;100.00
62708;BME280;48769;51.624;5.886;2023-01-29T03:08:22;102823.72;;;-0.32;100.00
62708;BME280;48769;51.624;5.886;2023-01-29T03:11:02;102828.16;;;-0.28;100.00
62708;BME280;48769;51.624;5.886;2023-01-29T03:13:36;102824.03;;;-0.19;100.00
62708;BME280;48769;51.624;5.886;2023-01-29T03:16:11;102818.88;;;-0.16;100.00
62708;BME280;48769;51.624;5.886;2023-01-29T03:18:42;102824.03;;;-0.19;100.00
62708;BME280;48769;51.624;5.886;2023-01-29T03:21:20;102823.28;;;-0.14;100.00
62708;BME280;48769;51.624;5.886;2023-01-29T03:24:08;102825.94;;;-0.12;100.00
62708;BME280;48769;51.624;5.886;2023-01-29T03:26:53;102824.97;;;-0.16;100.00
62708;BME280;48769;51.624;5.886;2023-01-29T03:29:37;102821.63;;;-0.12;100.00
62708;BME280;48769;51.624;5.886;2023-01-29T03:32:24;102828.56;;;-0.11;100.00
62708;BME280;48769;51.624;5.886;2023-01-29T03:34:56;102829.50;;;-0.07;100.00
62708;BME280;48769;51.624;5.886;2023-01-29T03:37:49;102830.53;;;-0.01;100.00
62708;BME280;48769;51.624;5.886;2023-01-29T03:40:14;102818.53;;;0.05;100.00
62708;BME280;48769;51.624;5.886;2023-01-29T03:45:38;102813.63;;;0.17;100.00
62708;BME280;48769;51.624;5.886;2023-01-29T03:48:37;102802.47;;;0.21;100.00
62708;BME280;48769;51.624;5.886;2023-01-29T03:54:18;102800.63;;;0.17;100.00
62708;BME280;48769;51.624;5.886;2023-01-29T04:02:30;102791.03;;;0.14;100.00
62708;BME280;48769;51.624;5.886;2023-01-29T04:05:03;102792.00;;;0.18;100.00
62708;BME280;48769;51.624;5.886;2023-01-29T04:07:30;102778.19;;;0.20;100.00
62708;BME280;48769;51.624;5.886;2023-01-29T04:10:07;102781.75;;;0.26;100.00
62708;BME280;48769;51.624;5.886;2023-01-29T04:12:37;102772.13;;;0.20;100.00
62708;BME280;48769;51.624;5.886;2023-01-29T04:15:08;102765.19;;;0.20;100.00
62708;BME280;48769;51.624;5.886;2023-01-29T04:17:40;102779.13;;;0.24;100.00
62708;BME280;48769;51.624;5.886;2023-01-29T04:20:08;102777.38;;;0.23;100.00
62708;BME280;48769;51.624;5.886;2023-01-29T04:22:36;102786.06;;;0.23;100.00
62708;BME280;48769;51.624;5.886;2023-01-29T04:25:07;102774.81;;;0.25;100.00
62708;BME280;48769;51.624;5.886;2023-01-29T04:30:55;102782.69;;;0.28;100.00
62708;BME280;48769;51.624;5.886;2023-01-29T04:33:54;102777.31;;;0.20;100.00
62708;BME280;48769;51.624;5.886;2023-01-29T04:42:05;102769.47;;;0.18;100.00
62708;BME280;48769;51.624;5.886;2023-01-29T04:44:53;102755.63;;;0.19;100.00
62708;BME280;48769;51.624;5.886;2023-01-29T04:47:57;102752.34;;;0.27;100.00
62708;BME280;48769;51.624;5.886;2023-01-29T04:50:22;102741.09;;;0.29;100.00
62708;BME280;48769;51.624;5.886;2023-01-29T04:52:59;102728.09;;;0.28;100.00
62708;BME280;48769;51.624;5.886;2023-01-29T05:00:46;102712.38;;;0.21;100.00
62708;BME280;48769;51.624;5.886;2023-01-29T05:03:14;102710.63;;;0.20;100.00
62708;BME280;48769;51.624;5.886;2023-01-29T05:05:41;102721.16;;;0.27;100.00
62708;BME280;48769;51.624;5.886;2023-01-29T05:08:10;102714.25;;;0.29;100.00
62708;BME280;48769;51.624;5.886;2023-01-29T05:10:37;102716.16;;;0.36;100.00
62708;BME280;48769;51.624;5.886;2023-01-29T05:13:05;102717.09;;;0.41;100.00
62708;BME280;48769;51.624;5.886;2023-01-29T05:15:38;102723.28;;;0.46;100.00
62708;BME280;48769;51.624;5.886;2023-01-29T05:18:04;102710.28;;;0.46;100.00
62708;BME280;48769;51.624;5.886;2023-01-29T05:20:34;102704.31;;;0.52;100.00
62708;BME280;48769;51.624;5.886;2023-01-29T05:23:00;102703.44;;;0.51;100.00
62708;BME280;48769;51.624;5.886;2023-01-29T05:25:31;102700.09;;;0.58;100.00
62708;BME280;48769;51.624;5.886;2023-01-29T05:27:57;102698.47;;;0.63;100.00
62708;BME280;48769;51.624;5.886;2023-01-29T05:30:30;102705.31;;;0.58;100.00
62708;BME280;48769;51.624;5.886;2023-01-29T05:32:55;102698.28;;;0.54;100.00
62708;BME280;48769;51.624;5.886;2023-01-29T05:35:20;102697.59;;;0.63;100.00
62708;BME280;48769;51.624;5.886;2023-01-29T05:37:46;102697.63;;;0.64;100.00
62708;BME280;48769;51.624;5.886;2023-01-29T05:40:11;102698.69;;;0.74;100.00
62708;BME280;48769;51.624;5.886;2023-01-29T05:42:37;102691.72;;;0.72;100.00
62708;BME280;48769;51.624;5.886;2023-01-29T05:45:02;102692.72;;;0.80;100.00
62708;BME280;48769;51.624;5.886;2023-01-29T05:47:28;102696.25;;;0.82;100.00
62708;BME280;48769;51.624;5.886;2023-01-29T05:49:53;102698.84;;;0.82;100.00
62708;BME280;48769;51.624;5.886;2023-01-29T05:52:18;102704.91;;;0.82;100.00
62708;BME280;48769;51.624;5.886;2023-01-29T05:54:43;102705.81;;;0.84;100.00
62708;BME280;48769;51.624;5.886;2023-01-29T05:57:09;102706.75;;;0.88;100.00
62708;BME280;48769;51.624;5.886;2023-01-29T05:59:34;102718.13;;;0.93;100.00
62708;BME280;48769;51.624;5.886;2023-01-29T06:01:59;102725.97;;;0.96;100.00
62708;BME280;48769;51.624;5.886;2023-01-29T06:04:25;102729.56;;;1.01;100.00
62708;BME280;48769;51.624;5.886;2023-01-29T06:06:50;102734.75;;;1.01;100.00
62708;BME280;48769;51.624;5.886;2023-01-29T06:09:15;102736.44;;;1.01;100.00
62708;BME280;48769;51.624;5.886;2023-01-29T06:11:41;102737.41;;;1.04;100.00
62708;BME280;48769;51.624;5.886;2023-01-29T06:14:06;102737.47;;;1.07;100.00
62708;BME280;48769;51.624;5.886;2023-01-29T06:16:31;102736.56;;;1.05;100.00
62708;BME280;48769;51.624;5.886;2023-01-29T06:18:56;102739.97;;;1.01;100.00
62708;BME280;48769;51.624;5.886;2023-01-29T06:21:22;102734.78;;;1.03;100.00
62708;BME280;48769;51.624;5.886;2023-01-29T06:23:47;102735.81;;;1.11;100.00
62708;BME280;48769;51.624;5.886;2023-01-29T06:26:14;102729.75;;;1.13;100.00
62708;BME280;48769;51.624;5.886;2023-01-29T06:28:39;102719.34;;;1.13;100.00
62708;BME280;48769;51.624;5.886;2023-01-29T06:31:06;102716.78;;;1.15;100.00
62708;BME280;48769;51.624;5.886;2023-01-29T06:33:32;102717.59;;;1.12;100.00
62708;BME280;48769;51.624;5.886;2023-01-29T06:36:03;102704.69;;;1.17;100.00
62708;BME280;48769;51.624;5.886;2023-01-29T06:38:29;102702.78;;;1.10;100.00
62708;BME280;48769;51.624;5.886;2023-01-29T06:40:55;102707.13;;;1.09;100.00
62708;BME280;48769;51.624;5.886;2023-01-29T06:43:21;102711.59;;;1.16;100.00
62708;BME280;48769;51.624;5.886;2023-01-29T06:45:52;102711.63;;;1.20;100.00
62708;BME280;48769;51.624;5.886;2023-01-29T06:48:18;102702.97;;;1.19;100.00
62708;BME280;48769;51.624;5.886;2023-01-29T06:50:43;102708.09;;;1.16;100.00
62708;BME280;48769;51.624;5.886;2023-01-29T06:53:09;102692.53;;;1.19;100.00
62708;BME280;48769;51.624;5.886;2023-01-29T06:55:35;102700.22;;;1.11;100.00
62708;BME280;48769;51.624;5.886;2023-01-29T06:58:07;102700.34;;;1.19;100.00
62708;BME280;48769;51.624;5.886;2023-01-29T07:00:33;102694.34;;;1.23;100.00
62708;BME280;48769;51.624;5.886;2023-01-29T07:02:59;102691.84;;;1.28;100.00
62708;BME280;48769;51.624;5.886;2023-01-29T07:05:24;102696.19;;;1.29;100.00
62708;BME280;48769;51.624;5.886;2023-01-29T07:07:49;102698.88;;;1.33;100.00
62708;BME280;48769;51.624;5.886;2023-01-29T07:10:15;102699.66;;;1.29;100.00
62708;BME280;48769;51.624;5.886;2023-01-29T07:12:40;102705.78;;;1.33;100.00
62708;BME280;48769;51.624;5.886;2023-01-29T07:15:06;102702.41;;;1.37;100.00
62708;BME280;48769;51.624;5.886;2023-01-29T07:17:31;102704.16;;;1.38;100.00
62708;BME280;48769;51.624;5.886;2023-01-29T07:19:56;102704.19;;;1.41;100.00
62708;BME280;48769;51.624;5.886;2023-01-29T07:22:22;102706.66;;;1.32;100.00
62708;BME280;48769;51.624;5.886;2023-01-29T07:24:47;102708.50;;;1.39;100.00
62708;BME280;48769;51.624;5.886;2023-01-29T07:27:12;102705.13;;;1.43;100.00
62708;BME280;48769;51.624;5.886;2023-01-29T07:29:38;102706.91;;;1.47;100.00
62708;BME280;48769;51.624;5.886;2023-01-29T07:32:03;102703.47;;;1.50;100.00
62708;BME280;48769;51.624;5.886;2023-01-29T07:34:28;102685.22;;;1.48;100.00
62708;BME280;48769;51.624;5.886;2023-01-29T07:36:55;102685.09;;;1.42;100.00
62708;BME280;48769;51.624;5.886;2023-01-29T07:39:21;102690.41;;;1.47;100.00
62708;BME280;48769;51.624;5.886;2023-01-29T07:41:46;102689.53;;;1.48;100.00
62708;BME280;48769;51.624;5.886;2023-01-29T07:44:12;102692.09;;;1.43;100.00
62708;BME280;48769;51.624;5.886;2023-01-29T07:46:37;102687.81;;;1.48;100.00
62708;BME280;48769;51.624;5.886;2023-01-29T07:49:02;102691.28;;;1.47;100.00
62708;BME280;48769;51.624;5.886;2023-01-29T07:51:28;102693.88;;;1.47;100.00
62708;BME280;48769;51.624;5.886;2023-01-29T07:53:53;102695.72;;;1.54;100.00
62708;BME280;48769;51.624;5.886;2023-01-29T07:56:19;102688.78;;;1.53;100.00
62708;BME280;48769;51.624;5.886;2023-01-29T07:58:44;102699.25;;;1.56;100.00
62708;BME280;48769;51.624;5.886;2023-01-29T08:01:09;102694.84;;;1.54;100.00
62708;BME280;48769;51.624;5.886;2023-01-29T08:03:35;102694.03;;;1.56;100.00
62708;BME280;48769;51.624;5.886;2023-01-29T08:06:02;102688.81;;;1.56;100.00
62708;BME280;48769;51.624;5.886;2023-01-29T08:08:27;102695.72;;;1.54;100.00
62708;BME280;48769;51.624;5.886;2023-01-29T08:10:53;102707.06;;;1.58;100.00
62708;BME280;48769;51.624;5.886;2023-01-29T08:13:18;102698.47;;;1.65;100.00
62708;BME280;48769;51.624;5.886;2023-01-29T08:15:44;102685.41;;;1.60;100.00
62708;BME280;48769;51.624;5.886;2023-01-29T08:18:10;102693.13;;;1.56;100.00
62708;BME280;48769;51.624;5.886;2023-01-29T08:20:35;102685.41;;;1.60;100.00
62708;BME280;48769;51.624;5.886;2023-01-29T08:23:04;102677.69;;;1.68;100.00
62708;BME280;48769;51.624;5.886;2023-01-29T08:25:30;102675.16;;;1.73;100.00
62708;BME280;48769;51.624;5.886;2023-01-29T08:27:56;102677.69;;;1.67;100.00
62708;BME280;48769;51.624;5.886;2023-01-29T08:30:23;102662.00;;;1.63;100.00
62708;BME280;48769;51.624;5.886;2023-01-29T08:32:49;102654.25;;;1.67;100.00
62708;BME280;48769;51.624;5.886;2023-01-29T08:35:14;102650.81;;;1.69;100.00
62708;BME280;48769;51.624;5.886;2023-01-29T08:37:39;102656.75;;;1.60;100.00
62708;BME280;48769;51.624;5.886;2023-01-29T08:40:05;102661.19;;;1.66;100.00
62708;BME280;48769;51.624;5.886;2023-01-29T08:42:33;102655.94;;;1.64;100.00
62708;BME280;48769;51.624;5.886;2023-01-29T08:44:58;102666.34;;;1.64;100.00
62708;BME280;48769;51.624;5.886;2023-01-29T08:47:24;102661.28;;;1.74;100.00
62708;BME280;48769;51.624;5.886;2023-01-29T08:49:49;102658.69;;;1.74;100.00
62708;BME280;48769;51.624;5.886;2023-01-29T08:52:14;102663.06;;;1.78;100.00
62708;BME280;48769;51.624;5.886;2023-01-29T08:54:39;102638.84;;;1.83;100.00
62708;BME280;48769;51.624;5.886;2023-01-29T08:57:05;102640.59;;;1.86;100.00
62708;BME280;48769;51.624;5.886;2023-01-29T08:59:30;102644.06;;;1.85;100.00
62708;BME280;48769;51.624;5.886;2023-01-29T09:01:55;102635.44;;;1.89;100.00
62708;BME280;48769;51.624;5.886;2023-01-29T09:04:21;102637.19;;;1.90;100.00
62708;BME280;48769;51.624;5.886;2023-01-29T09:06:46;102638.88;;;1.88;100.00
62708;BME280;48769;51.624;5.886;2023-01-29T09:09:11;102638.88;;;1.88;100.00
62708;BME280;48769;51.624;5.886;2023-01-29T09:11:38;102631.97;;;1.90;100.00
62708;BME280;48769;51.624;5.886;2023-01-29T09:14:04;102632.06;;;1.96;100.00
62708;BME280;48769;51.624;5.886;2023-01-29T09:16:30;102626.84;;;1.96;100.00
62708;BME280;48769;51.624;5.886;2023-01-29T09:18:55;102633.78;;;1.97;100.00
62708;BME280;48769;51.624;5.886;2023-01-29T09:21:21;102626.00;;;2.00;100.00
62708;BME280;48769;51.624;5.886;2023-01-29T09:23:46;102623.41;;;2.00;100.00
62708;BME280;48769;51.624;5.886;2023-01-29T09:26:11;102625.16;;;2.01;100.00
62708;BME280;48769;51.624;5.886;2023-01-29T09:28:37;102622.63;;;2.07;100.00
62708;BME280;48769;51.624;5.886;2023-01-29T09:31:02;102616.63;;;2.12;100.00
62708;BME280;48769;51.624;5.886;2023-01-29T09:33:28;102620.91;;;2.11;100.00
62708;BME280;48769;51.624;5.886;2023-01-29T09:35:53;102622.69;;;2.12;100.00
62708;BME280;48769;51.624;5.886;2023-01-29T09:38:19;102630.53;;;2.14;100.00
62708;BME280;48769;51.624;5.886;2023-01-29T09:41:07;102633.16;;;2.15;100.00
62708;BME280;48769;51.624;5.886;2023-01-29T09:43:53;102634.06;;;2.20;100.00
62708;BME280;48769;51.624;5.886;2023-01-29T09:49:13;102628.94;;;2.25;100.00
62708;BME280;48769;51.624;5.886;2023-01-29T09:51:41;102625.41;;;2.23;100.00
62708;BME280;48769;51.624;5.886;2023-01-29T09:54:24;102628.94;;;2.25;100.00
62708;BME280;48769;51.624;5.886;2023-01-29T09:56:55;102623.72;;;2.25;100.00
62708;BME280;48769;51.624;5.886;2023-01-29T09:59:24;102628.97;;;2.28;100.00
62708;BME280;48769;51.624;5.886;2023-01-29T10:02:01;102616.84;;;2.33;100.00
62708;BME280;48769;51.624;5.886;2023-01-29T10:05:18;102616.03;;;2.39;100.00
62708;BME280;48769;51.624;5.886;2023-01-29T10:10:38;102622.25;;;2.53;100.00
62708;BME280;48769;51.624;5.886;2023-01-29T10:13:18;102627.47;;;2.51;100.00
62708;BME280;48769;51.624;5.886;2023-01-29T10:16:01;102617.00;;;2.48;100.00
62708;BME280;48769;51.624;5.886;2023-01-29T10:18:43;102619.69;;;2.54;100.00
62708;BME280;48769;51.624;5.886;2023-01-29T10:21:56;102624.91;;;2.56;100.00
62708;BME280;48769;51.624;5.886;2023-01-29T10:26:56;102626.69;;;2.57;100.00
62708;BME280;48769;51.624;5.886;2023-01-29T10:29:23;102628.38;;;2.56;100.00
62708;BME280;48769;51.624;5.886;2023-01-29T10:32:00;102625.81;;;2.60;100.00
62708;BME280;48769;51.624;5.886;2023-01-29T10:34:32;102617.19;;;2.64;100.00
62708;BME280;48769;51.624;5.886;2023-01-29T10:37:11;102625.03;;;2.68;100.00
62708;BME280;48769;51.624;5.886;2023-01-29T10:39:39;102626.81;;;2.72;100.00
62708;BME280;48769;51.624;5.886;2023-01-29T10:42:25;102626.81;;;2.71;100.00
62708;BME280;48769;51.624;5.886;2023-01-29T10:45:19;102628.59;;;2.78;100.00
62708;BME280;48769;51.624;5.886;2023-01-29T10:50:54;102616.53;;;2.91;100.00
62708;BME280;48769;51.624;5.886;2023-01-29T10:58:55;102601.81;;;2.96;100.00
62708;BME280;48769;51.624;5.886;2023-01-29T11:01:23;102601.84;;;3.03;100.00
62708;BME280;48769;51.624;5.886;2023-01-29T11:04:04;102584.44;;;2.99;99.83
62708;BME280;48769;51.624;5.886;2023-01-29T11:06:35;102580.94;;;3.00;99.83
62708;BME280;48769;51.624;5.886;2023-01-29T11:12:12;102564.50;;;3.12;98.81
62708;BME280;48769;51.624;5.886;2023-01-29T11:14:44;102554.06;;;3.12;98.17
62708;BME280;48769;51.624;5.886;2023-01-29T11:17:15;102549.66;;;3.07;97.83
62708;BME280;48769;51.624;5.886;2023-01-29T11:19:43;102558.41;;;3.13;98.78
62708;BME280;48769;51.624;5.886;2023-01-29T11:22:28;102549.72;;;3.16;97.88
62708;BME280;48769;51.624;5.886;2023-01-29T11:27:44;102541.84;;;3.11;97.63
62708;BME280;48769;51.624;5.886;2023-01-29T11:30:32;102535.84;;;3.27;97.72
62708;BME280;48769;51.624;5.886;2023-01-29T11:35:29;102525.47;;;3.35;96.70
62708;BME280;48769;51.624;5.886;2023-01-29T11:40:40;102510.66;;;3.37;96.46
62708;BME280;48769;51.624;5.886;2023-01-29T11:43:21;102503.78;;;3.53;95.70
62708;BME280;48769;51.624;5.886;2023-01-29T11:45:49;102494.16;;;3.50;94.40
62708;BME280;48769;51.624;5.886;2023-01-29T11:48:17;102486.34;;;3.52;93.82
62708;BME280;48769;51.624;5.886;2023-01-29T11:50:43;102482.88;;;3.55;94.01
62708;BME280;48769;51.624;5.886;2023-01-29T11:53:33;102470.72;;;3.64;92.15
62708;BME280;48769;51.624;5.886;2023-01-29T11:56:03;102461.09;;;3.57;92.61
62708;BME280;48769;51.624;5.886;2023-01-29T11:58:32;102454.16;;;3.58;92.61
62708;BME280;48769;51.624;5.886;2023-01-29T12:00:58;102457.66;;;3.69;91.10
62708;BME280;48769;51.624;5.886;2023-01-29T12:03:34;102451.53;;;3.64;90.82
62708;BME280;48769;51.624;5.886;2023-01-29T12:06:22;102454.19;;;3.73;91.68
62708;BME280;48769;51.624;5.886;2023-01-29T12:08:57;102443.75;;;3.76;91.31
62708;BME280;48769;51.624;5.886;2023-01-29T12:11:34;102447.22;;;3.67;90.55
62708;BME280;48769;51.624;5.886;2023-01-29T12:14:02;102441.97;;;3.66;91.04
62708;BME280;48769;51.624;5.886;2023-01-29T12:19:55;102438.50;;;3.76;90.75
62708;BME280;48769;51.624;5.886;2023-01-29T12:22:44;102424.56;;;3.71;90.27
62708;BME280;48769;51.624;5.886;2023-01-29T12:25:29;102419.34;;;3.80;88.50
62708;BME280;48769;51.624;5.886;2023-01-29T12:28:03;102406.28;;;3.68;88.08
62708;BME280;48769;51.624;5.886;2023-01-29T12:30:43;102405.38;;;3.66;89.03
62708;BME280;48769;51.624;5.886;2023-01-29T12:33:38;102404.50;;;3.67;89.89
62708;BME280;48769;51.624;5.886;2023-01-29T12:36:13;102402.78;;;3.73;88.88
62708;BME280;48769;51.624;5.886;2023-01-29T12:38:43;102395.81;;;3.68;88.83
62708;BME280;48769;51.624;5.886;2023-01-29T12:41:29;102391.44;;;3.67;88.94
62708;BME280;48769;51.624;5.886;2023-01-29T12:44:01;102384.50;;;3.72;89.08
62708;BME280;48769;51.624;5.886;2023-01-29T12:46:38;102383.59;;;3.70;88.45
62708;BME280;48769;51.624;5.886;2023-01-29T12:49:11;102381.00;;;3.70;89.02
62708;BME280;48769;51.624;5.886;2023-01-29T12:51:48;102370.53;;;3.70;88.63
62708;BME280;48769;51.624;5.886;2023-01-29T12:54:22;102372.31;;;3.71;88.10
62708;BME280;48769;51.624;5.886;2023-01-29T12:56:52;102370.56;;;3.78;87.84
62708;BME280;48769;51.624;5.886;2023-01-29T12:59:32;102372.31;;;3.77;88.32
62708;BME280;48769;51.624;5.886;2023-01-29T13:02:22;102363.59;;;3.69;87.77
62708;BME280;48769;51.624;5.886;2023-01-29T13:04:58;102356.63;;;3.71;88.39
62708;BME280;48769;51.624;5.886;2023-01-29T13:07:29;102357.50;;;3.78;88.53
62708;BME280;48769;51.624;5.886;2023-01-29T13:10:17;102351.38;;;3.80;87.17
62708;BME280;48769;51.624;5.886;2023-01-29T13:12:57;102343.56;;;3.91;87.78
62708;BME280;48769;51.624;5.886;2023-01-29T13:17:56;102332.22;;;3.84;87.81
62708;BME280;48769;51.624;5.886;2023-01-29T13:20:23;102340.94;;;3.89;87.84
62708;BME280;48769;51.624;5.886;2023-01-29T13:22:52;102335.72;;;3.98;86.86
62708;BME280;48769;51.624;5.886;2023-01-29T13:25:19;102334.84;;;3.98;87.35
62708;BME280;48769;51.624;5.886;2023-01-29T13:27:46;102339.19;;;4.02;87.69
62708;BME280;48769;51.624;5.886;2023-01-29T13:30:31;102328.75;;;4.07;87.49
62708;BME280;48769;51.624;5.886;2023-01-29T13:33:00;102326.13;;;4.02;87.86
62708;BME280;48769;51.624;5.886;2023-01-29T13:35:40;102315.66;;;4.10;87.63
62708;BME280;48769;51.624;5.886;2023-01-29T13:38:22;102315.66;;;4.11;87.41
62708;BME280;48769;51.624;5.886;2023-01-29T13:40:49;102314.78;;;4.11;86.60
62708;BME280;48769;51.624;5.886;2023-01-29T13:43:20;102307.81;;;4.10;86.77
62708;BME280;48769;51.624;5.886;2023-01-29T13:45:48;102306.06;;;4.12;87.37
62708;BME280;48769;51.624;5.886;2023-01-29T13:50:44;102295.59;;;4.15;87.32
62708;BME280;48769;51.624;5.886;2023-01-29T13:53:21;102295.59;;;4.15;86.75
62708;BME280;48769;51.624;5.886;2023-01-29T13:55:48;102289.47;;;4.16;87.06
62708;BME280;48769;51.624;5.886;2023-01-29T14:01:07;102279.91;;;4.15;87.57
62708;BME280;48769;51.624;5.886;2023-01-29T14:03:41;102282.53;;;4.12;86.99
62708;BME280;48769;51.624;5.886;2023-01-29T14:06:07;102288.63;;;4.17;87.25
62708;BME280;48769;51.624;5.886;2023-01-29T14:08:45;102286.84;;;4.19;86.84
62708;BME280;48769;51.624;5.886;2023-01-29T14:13:37;102281.63;;;4.22;87.73
62708;BME280;48769;51.624;5.886;2023-01-29T14:18:28;102286.03;;;4.14;86.62
62708;BME280;48769;51.624;5.886;2023-01-29T14:21:05;102283.41;;;4.17;87.00
62708;BME280;48769;51.624;5.886;2023-01-29T14:23:32;102283.41;;;4.20;87.20
62708;BME280;48769;51.624;5.886;2023-01-29T14:26:01;102286.00;;;4.18;87.28
62708;BME280;48769;51.624;5.886;2023-01-29T14:28:30;102279.91;;;4.21;87.24
62708;BME280;48769;51.624;5.886;2023-01-29T14:30:56;102279.03;;;4.20;87.13
62708;BME280;48769;51.624;5.886;2023-01-29T14:35:50;102270.31;;;4.17;88.04
62708;BME280;48769;51.624;5.886;2023-01-29T14:38:17;102258.09;;;4.25;88.40
62708;BME280;48769;51.624;5.886;2023-01-29T14:40:44;102245.00;;;4.25;87.78
62708;BME280;48769;51.624;5.886;2023-01-29T14:43:18;102250.22;;;4.31;87.54